Skip Navigation Links Skip Navigation Links

Current Weather

Eielson Afb, Fairbanks, Alaska

For information only: do not use for flight planning or navigation.
Latest weather
Observation time Tuesday, October 26, 2021 10:18 PM AKDT
Local time Tuesday, October 26, 2021 10:45 PM AKDT
Flight conditions Low Instrument Meteorological Conditions
Winds
Wind direction South-Southwest (200°)
Wind speed 3 mph
Visibility 10 mi.
Present weather light snow
Sky condition
Ceiling 300 ft. overcast
Cloud layer overcast 300 ft.
Temperature 27°F
Dewpoint 27°F
Altimeter 29.37 in.Hg
Precipitation
Snow ended 10:00 PM
Snow began 10:00 PM
Snow ended 10:00 PM
Snow began 10:18 PM
Derived measurements
Relative humidity 100%
Wind chill 23°F
Density altitude -947 ft.
Sea-level pressure 29.40 in.Hg
Remarks
Fully automated report.
System requires maintenance.
Automated weather observing station with precipitation discriminator.
METAR PAEI 270618Z AUTO 20003KT 10SM -SN OVC003 M03/M03 A2937 RMK AO2 SNE00SNB00E00SNB18 SLP956 $

Settings

Location code

InnerDrive.Weather 4.0.6770.0 Release CLR 4.0.30319.42000
Copyright ©2018 Inner Drive Technology. All rights reserved. Portions Copyright ©1986-2018 David Braverman.

Find weather

Site navigation


Skip Navigation Links

Place info

Page info

PayPal - The safer, easier way to pay online!

Return home.

Copyright ©2021 Inner Drive Technology. Purveyors of fine, hand-crafted computer software. Page printed 2021-10-27T06:45:04 UTC.